Terminal Aerodrome Forecast
Issued by NWS Sioux Falls, SD

Home | Current Version | Previous Version | Text Only | Print | Product List | Glossary Off
Versions: 1 2 3 4 5 6 7 8 9 10 11 12 13

338
FTUS43 KFSD 200520
TAFHON
TAF
KHON 200520Z 2006/2106 17005KT P6SM BKN250
     FM201600 20006KT P6SM SCT200
     FM202300 26008KT P6SM SCT200=

USA.gov is the U.S. government's official web portal to all federal, state and local government web resources and services.